createdAt,value
2022-11-01T00:01:21.893Z,15.38
2022-11-01T00:03:48.587Z,15.39
2022-11-01T00:06:15.246Z,15.40
2022-11-01T00:08:41.922Z,15.36
2022-11-01T00:11:13.098Z,15.42
2022-11-01T00:13:39.955Z,15.41
2022-11-01T00:16:06.895Z,15.41
2022-11-01T00:18:33.571Z,15.38
2022-11-01T00:21:00.241Z,15.44
2022-11-01T00:23:26.938Z,15.27
2022-11-01T00:25:53.615Z,15.37
2022-11-01T00:28:20.312Z,15.44
2022-11-01T00:30:47.021Z,15.53
2022-11-01T00:33:13.681Z,15.40
2022-11-01T00:35:40.421Z,15.56
2022-11-01T00:38:07.107Z,15.56
2022-11-01T00:40:33.899Z,15.57
2022-11-01T00:43:00.560Z,15.55
2022-11-01T00:45:27.273Z,15.55
2022-11-01T00:47:53.991Z,15.32
2022-11-01T00:50:20.742Z,15.39
2022-11-01T00:52:47.594Z,15.46
2022-11-01T00:55:14.412Z,15.46
2022-11-01T00:57:41.079Z,15.47
2022-11-01T01:00:08.496Z,15.39
2022-11-01T01:02:35.274Z,15.23
2022-11-01T01:05:02.024Z,15.21
2022-11-01T01:07:28.680Z,15.30
2022-11-01T01:09:55.362Z,15.29
2022-11-01T01:12:22.029Z,15.36
2022-11-01T01:14:48.738Z,15.37
2022-11-01T01:17:15.578Z,15.38
2022-11-01T01:19:42.232Z,15.38
2022-11-01T01:22:09.075Z,15.36
2022-11-01T01:24:35.803Z,15.36
2022-11-01T01:27:03.585Z,15.34
2022-11-01T01:29:30.406Z,15.34
2022-11-01T01:31:57.077Z,15.34
2022-11-01T01:34:23.710Z,15.31
2022-11-01T01:36:50.389Z,15.28
2022-11-01T01:39:17.044Z,15.23
2022-11-01T01:41:55.938Z,15.16
2022-11-01T01:45:07.983Z,15.15
2022-11-01T01:47:37.719Z,15.10
2022-11-01T01:50:24.284Z,15.03
2022-11-01T01:53:09.656Z,15.01
2022-11-01T01:55:55.108Z,14.98
2022-11-01T01:58:25.575Z,14.95
2022-11-01T02:00:54.196Z,14.94
2022-11-01T02:03:22.903Z,14.91
2022-11-01T02:05:56.752Z,14.93
2022-11-01T02:08:28.090Z,14.90
2022-11-01T02:11:02.104Z,14.93
2022-11-01T02:13:29.459Z,14.94
2022-11-01T02:16:09.669Z,14.92
2022-11-01T02:19:06.094Z,14.95
2022-11-01T02:21:51.508Z,14.86
2022-11-01T02:24:45.218Z,14.83
2022-11-01T02:27:32.403Z,14.86
2022-11-01T02:30:06.461Z,14.86
2022-11-01T02:32:33.053Z,14.87
2022-11-01T02:35:22.745Z,14.78
2022-11-01T02:38:06.438Z,14.79
2022-11-01T02:41:01.126Z,14.84
2022-11-01T02:43:45.487Z,14.86
2022-11-01T02:46:30.722Z,14.72
2022-11-01T02:48:58.221Z,14.80
2022-11-01T02:51:25.773Z,14.81
2022-11-01T02:53:52.511Z,14.80
2022-11-01T02:56:19.357Z,14.88
2022-11-01T02:58:46.849Z,14.86
2022-11-01T03:01:19.442Z,14.86
2022-11-01T03:03:47.883Z,14.89
2022-11-01T03:06:36.620Z,14.90
2022-11-01T03:09:08.022Z,14.86
2022-11-01T03:11:56.021Z,14.85
2022-11-01T03:14:37.888Z,14.82
2022-11-01T03:17:26.654Z,14.82
2022-11-01T03:20:14.331Z,14.82
2022-11-01T03:22:44.302Z,14.77
2022-11-01T03:25:35.759Z,14.74
2022-11-01T03:28:07.408Z,14.71
2022-11-01T03:30:35.115Z,14.69
2022-11-01T03:33:02.486Z,14.65
2022-11-01T03:35:34.705Z,14.62
2022-11-01T03:38:04.791Z,14.60
2022-11-01T03:40:33.062Z,14.59
2022-11-01T03:43:06.384Z,14.56
2022-11-01T03:45:35.844Z,14.51
2022-11-01T03:48:02.951Z,14.52
2022-11-01T03:50:29.936Z,14.49
2022-11-01T03:52:57.200Z,14.46
2022-11-01T03:55:24.053Z,14.44
2022-11-01T03:57:58.765Z,14.40
2022-11-01T04:00:32.483Z,14.36
2022-11-01T04:03:00.124Z,14.31
2022-11-01T04:05:28.952Z,14.33
2022-11-01T04:07:55.958Z,14.33
2022-11-01T04:10:23.896Z,14.30
2022-11-01T04:12:51.483Z,14.25
2022-11-01T04:15:38.225Z,14.27
2022-11-01T04:18:25.141Z,14.25
2022-11-01T04:20:52.892Z,14.20
2022-11-01T04:23:19.589Z,14.23
2022-11-01T04:25:49.175Z,14.22
2022-11-01T04:28:16.173Z,14.23
2022-11-01T04:30:43.985Z,14.22
2022-11-01T04:33:10.835Z,14.22
2022-11-01T04:35:40.873Z,14.22
2022-11-01T04:38:07.655Z,14.17
2022-11-01T04:40:34.528Z,14.08
2022-11-01T04:43:01.282Z,14.14
2022-11-01T04:45:28.023Z,14.25
2022-11-01T04:48:24.497Z,14.21
2022-11-01T04:50:51.183Z,14.16
2022-11-01T04:53:17.958Z,14.23
2022-11-01T04:55:44.687Z,14.22
2022-11-01T04:58:11.612Z,14.22
2022-11-01T05:00:38.690Z,14.28
2022-11-01T05:03:07.680Z,14.23
2022-11-01T05:05:35.071Z,14.29
2022-11-01T05:08:09.430Z,14.23
2022-11-01T05:10:38.700Z,14.22
2022-11-01T05:13:05.966Z,14.24
2022-11-01T05:15:32.959Z,14.25
2022-11-01T05:18:00.175Z,14.06
2022-11-01T05:20:26.846Z,13.97
2022-11-01T05:22:58.260Z,14.18
2022-11-01T05:25:25.032Z,14.22
2022-11-01T05:27:51.681Z,14.25
2022-11-01T05:30:18.461Z,14.26
2022-11-01T05:32:45.122Z,14.11
2022-11-01T05:35:11.799Z,14.30
2022-11-01T05:37:38.540Z,14.37
2022-11-01T05:40:05.713Z,14.42
2022-11-01T05:42:32.624Z,14.35
2022-11-01T05:44:59.302Z,14.27
2022-11-01T05:47:26.015Z,14.32
2022-11-01T05:49:52.655Z,14.20
2022-11-01T05:52:19.322Z,13.82
2022-11-01T05:54:45.954Z,13.93
2022-11-01T05:57:12.591Z,14.01
2022-11-01T05:59:39.291Z,13.98
2022-11-01T06:02:06.016Z,13.98
2022-11-01T06:04:32.769Z,14.07
2022-11-01T06:06:59.469Z,14.11
2022-11-01T06:09:26.126Z,14.13
2022-11-01T06:11:52.827Z,13.70
2022-11-01T06:14:19.459Z,13.98
2022-11-01T06:16:46.148Z,13.88
2022-11-01T06:19:12.911Z,13.79
2022-11-01T06:21:39.566Z,13.90
2022-11-01T06:24:06.341Z,13.81
2022-11-01T06:26:33.084Z,13.80
2022-11-01T06:29:03.350Z,13.78
2022-11-01T06:31:30.045Z,13.83
2022-11-01T06:33:56.702Z,13.97
2022-11-01T06:36:23.741Z,13.65
2022-11-01T06:38:50.423Z,13.67
2022-11-01T06:41:17.124Z,13.64
2022-11-01T06:43:43.816Z,13.70
2022-11-01T06:46:10.478Z,13.79
2022-11-01T06:48:37.104Z,13.99
2022-11-01T06:51:04.614Z,14.09
2022-11-01T06:53:31.450Z,14.18
2022-11-01T06:56:01.688Z,14.22
2022-11-01T06:58:28.654Z,14.37
2022-11-01T07:00:55.411Z,14.46
2022-11-01T07:03:22.224Z,14.50
2022-11-01T07:05:50.208Z,14.48
2022-11-01T07:08:16.870Z,14.41
2022-11-01T07:10:44.167Z,14.39
2022-11-01T07:13:13.324Z,14.44
2022-11-01T07:15:40.402Z,14.33
2022-11-01T07:18:08.470Z,14.45
2022-11-01T07:20:41.514Z,14.47
2022-11-01T07:23:16.274Z,14.48
2022-11-01T07:25:43.433Z,14.27
2022-11-01T07:28:10.605Z,14.18
2022-11-01T07:30:37.553Z,14.14
2022-11-01T07:33:05.296Z,13.98
2022-11-01T07:35:32.504Z,14.15
2022-11-01T07:38:01.270Z,14.17
2022-11-01T07:40:30.447Z,14.19
2022-11-01T07:43:00.152Z,14.07
2022-11-01T07:45:28.515Z,14.10
2022-11-01T07:48:02.830Z,14.24
2022-11-01T07:50:31.565Z,14.02
2022-11-01T07:53:01.861Z,14.24
2022-11-01T07:55:28.697Z,14.23
2022-11-01T07:57:55.571Z,14.36
2022-11-01T08:00:22.473Z,14.37
2022-11-01T08:02:49.672Z,14.44
2022-11-01T08:05:16.700Z,14.58
2022-11-01T08:07:43.387Z,14.46
2022-11-01T08:10:11.580Z,14.60
2022-11-01T08:12:41.117Z,14.80
2022-11-01T08:15:08.413Z,14.78
2022-11-01T08:17:35.106Z,14.71
2022-11-01T08:20:02.215Z,14.81
2022-11-01T08:22:28.927Z,14.71
2022-11-01T08:24:55.751Z,14.44
2022-11-01T08:27:22.484Z,14.39
2022-11-01T08:29:49.180Z,14.50
2022-11-01T08:32:19.978Z,14.36
2022-11-01T08:34:46.630Z,14.50
2022-11-01T08:37:13.775Z,14.49
2022-11-01T08:39:40.450Z,14.56
2022-11-01T08:42:07.255Z,14.79
2022-11-01T08:44:34.739Z,14.98
2022-11-01T08:47:01.863Z,14.83
2022-11-01T08:49:28.739Z,14.82
2022-11-01T08:51:55.918Z,14.66
2022-11-01T08:54:22.678Z,14.79
2022-11-01T08:56:49.320Z,14.78
2022-11-01T08:59:16.007Z,14.96
2022-11-01T09:01:42.774Z,15.22
2022-11-01T09:04:09.597Z,15.26
2022-11-01T09:06:36.631Z,15.36
2022-11-01T09:09:04.280Z,15.42
2022-11-01T09:11:31.210Z,15.33
2022-11-01T09:14:01.422Z,15.67
2022-11-01T09:16:28.543Z,15.79
2022-11-01T09:18:55.385Z,15.75
2022-11-01T09:21:22.054Z,16.20
2022-11-01T09:23:48.949Z,16.23
2022-11-01T09:26:15.710Z,16.38
2022-11-01T09:28:42.435Z,16.47
2022-11-01T09:31:26.339Z,16.62
2022-11-01T09:33:57.373Z,16.72
2022-11-01T09:36:25.188Z,16.56
2022-11-01T09:38:51.931Z,16.53
2022-11-01T09:41:47.399Z,16.44
2022-11-01T09:44:17.892Z,16.35
2022-11-01T09:46:53.485Z,16.44
2022-11-01T09:49:27.136Z,16.59
2022-11-01T09:51:54.385Z,16.77
2022-11-01T09:54:23.539Z,16.76
2022-11-01T09:56:56.263Z,16.85
2022-11-01T09:59:53.919Z,16.79
2022-11-01T10:02:34.540Z,16.64
2022-11-01T10:05:38.753Z,16.44
2022-11-01T10:08:31.159Z,16.47
2022-11-01T10:11:22.870Z,16.50
2022-11-01T10:14:16.361Z,16.59
2022-11-01T10:16:51.653Z,16.65
2022-11-01T10:19:19.558Z,16.76
2022-11-01T10:21:51.380Z,16.72
2022-11-01T10:24:22.042Z,16.84
2022-11-01T10:26:52.606Z,16.48
2022-11-01T10:29:28.374Z,16.38
2022-11-01T10:31:55.304Z,16.32
2022-11-01T10:34:25.650Z,16.22
2022-11-01T10:36:58.981Z,16.17
2022-11-01T10:39:56.175Z,16.14
2022-11-01T10:42:28.458Z,16.30
2022-11-01T10:44:58.821Z,16.29
2022-11-01T10:47:25.921Z,16.37
2022-11-01T10:50:12.406Z,16.33
2022-11-01T10:52:46.863Z,16.46
2022-11-01T10:55:17.776Z,16.61
2022-11-01T10:57:49.523Z,16.68
2022-11-01T11:00:19.490Z,16.82
2022-11-01T11:02:49.466Z,16.91
2022-11-01T11:05:16.514Z,17.17
2022-11-01T11:07:44.499Z,17.25
2022-11-01T11:10:25.117Z,17.35
2022-11-01T11:12:55.392Z,17.49
2022-11-01T11:15:42.489Z,17.53
2022-11-01T11:18:18.070Z,17.73
2022-11-01T11:20:44.878Z,17.54
2022-11-01T11:23:13.018Z,17.60
2022-11-01T11:25:41.800Z,17.60
2022-11-01T11:28:20.356Z,17.60
2022-11-01T11:30:47.209Z,17.67
2022-11-01T11:33:17.369Z,17.68
2022-11-01T11:35:53.112Z,17.63
2022-11-01T11:38:40.626Z,17.60
2022-11-01T11:41:10.119Z,17.63
2022-11-01T11:43:41.174Z,17.65
2022-11-01T11:46:10.804Z,17.60
2022-11-01T11:48:57.235Z,17.58
2022-11-01T11:51:26.748Z,17.49
2022-11-01T11:54:24.564Z,17.56
2022-11-01T11:56:54.220Z,17.60
2022-11-01T11:59:27.694Z,17.62
2022-11-01T12:01:56.769Z,17.59
2022-11-01T12:04:24.962Z,17.62
2022-11-01T12:06:51.866Z,17.71
2022-11-01T12:09:38.502Z,17.71
2022-11-01T12:12:07.017Z,17.79
2022-11-01T12:14:37.002Z,17.66
2022-11-01T12:17:25.788Z,17.78
2022-11-01T12:20:09.698Z,17.84
2022-11-01T12:22:38.568Z,17.86
2022-11-01T12:25:08.453Z,17.81
2022-11-01T12:27:36.157Z,17.89
2022-11-01T12:30:10.484Z,17.92
2022-11-01T12:32:47.821Z,17.92
2022-11-01T12:35:21.372Z,17.80
2022-11-01T12:37:54.012Z,17.74
2022-11-01T12:40:27.155Z,17.62
2022-11-01T12:43:01.633Z,17.67
2022-11-01T12:45:32.189Z,17.68
2022-11-01T12:48:08.854Z,17.67
2022-11-01T12:50:46.368Z,17.77
2022-11-01T12:53:37.824Z,17.67
2022-11-01T12:56:04.688Z,17.67
2022-11-01T12:58:33.868Z,17.73
2022-11-01T13:01:29.115Z,17.75
2022-11-01T13:04:07.060Z,17.85
2022-11-01T13:06:39.939Z,17.93
2022-11-01T13:09:48.708Z,17.97
2022-11-01T13:12:34.912Z,18.01
2022-11-01T13:15:40.754Z,17.98
2022-11-01T13:18:24.569Z,18.03
2022-11-01T13:20:59.355Z,18.10
2022-11-01T13:23:37.148Z,18.19
2022-11-01T13:26:13.529Z,18.18
2022-11-01T13:28:49.281Z,18.24
2022-11-01T13:31:47.126Z,18.20
2022-11-01T13:34:51.612Z,18.33
2022-11-01T13:37:21.267Z,18.29
2022-11-01T13:40:08.165Z,18.17
2022-11-01T13:42:38.907Z,18.20
2022-11-01T13:45:47.562Z,18.09
2022-11-01T13:48:33.193Z,18.14
2022-11-01T13:51:26.072Z,18.15
2022-11-01T13:53:58.799Z,18.22
2022-11-01T13:56:28.038Z,18.19
2022-11-01T13:58:54.818Z,18.26
2022-11-01T14:01:35.981Z,18.16
2022-11-01T14:04:12.345Z,18.19
2022-11-01T14:06:41.969Z,18.21
2022-11-01T14:09:23.883Z,18.16
2022-11-01T14:12:05.862Z,18.19
2022-11-01T14:14:32.652Z,18.17
2022-11-01T14:17:21.115Z,18.01
2022-11-01T14:19:50.084Z,18.01
2022-11-01T14:22:22.772Z,18.00
2022-11-01T14:24:54.195Z,18.05
2022-11-01T14:27:33.987Z,18.03
2022-11-01T14:30:01.780Z,18.08
2022-11-01T14:32:31.021Z,18.14
2022-11-01T14:35:03.859Z,18.07
2022-11-01T14:37:37.465Z,17.99
2022-11-01T14:40:18.894Z,18.06
2022-11-01T14:42:46.999Z,18.06
2022-11-01T14:45:27.984Z,18.06
2022-11-01T14:47:58.437Z,17.88
2022-11-01T14:50:31.666Z,17.98
2022-11-01T14:53:11.307Z,18.12
2022-11-01T14:55:38.722Z,18.16
2022-11-01T14:58:13.141Z,18.22
2022-11-01T15:00:40.400Z,18.07
2022-11-01T15:03:09.026Z,18.16
2022-11-01T15:05:43.976Z,18.21
2022-11-01T15:08:24.965Z,18.26
2022-11-01T15:10:53.553Z,18.13
2022-11-01T15:13:20.829Z,17.96
2022-11-01T15:16:02.067Z,17.95
2022-11-01T15:18:29.083Z,18.03
2022-11-01T15:20:58.287Z,18.06
2022-11-01T15:23:29.049Z,18.03
2022-11-01T15:25:57.222Z,17.87
2022-11-01T15:28:25.832Z,17.91
2022-11-01T15:30:57.395Z,17.95
2022-11-01T15:33:30.814Z,17.91
2022-11-01T15:35:59.854Z,17.85
2022-11-01T15:38:27.438Z,17.80
2022-11-01T15:40:54.289Z,17.66
2022-11-01T15:43:23.250Z,17.65
2022-11-01T15:45:55.495Z,17.60
2022-11-01T15:48:29.073Z,17.56
2022-11-01T15:51:01.433Z,17.55
2022-11-01T15:53:31.130Z,17.50
2022-11-01T15:56:12.893Z,17.34
2022-11-01T15:58:48.245Z,17.29
2022-11-01T16:01:18.346Z,17.29
2022-11-01T16:03:55.699Z,17.30
2022-11-01T16:06:23.490Z,17.30
2022-11-01T16:09:06.580Z,17.24
2022-11-01T16:11:34.359Z,17.23
2022-11-01T16:14:07.221Z,17.19
2022-11-01T16:16:56.805Z,17.13
2022-11-01T16:19:36.281Z,17.04
2022-11-01T16:22:03.747Z,16.97
2022-11-01T16:24:31.123Z,16.91
2022-11-01T16:27:03.758Z,16.86
2022-11-01T16:29:50.444Z,16.80
2022-11-01T16:32:20.097Z,16.74
2022-11-01T16:34:47.326Z,16.68
2022-11-01T16:37:29.638Z,16.62
2022-11-01T16:39:57.932Z,16.55
2022-11-01T16:42:24.900Z,16.52
2022-11-01T16:44:56.379Z,16.47
2022-11-01T16:47:23.679Z,16.40
2022-11-01T16:49:55.231Z,16.35
2022-11-01T16:52:22.586Z,16.33
2022-11-01T16:54:51.255Z,16.29
2022-11-01T16:57:24.109Z,16.26
2022-11-01T16:59:51.473Z,16.21
2022-11-01T17:02:21.014Z,16.18
2022-11-01T17:04:50.539Z,16.14
2022-11-01T17:07:17.593Z,16.10
2022-11-01T17:09:44.364Z,16.06
2022-11-01T17:12:11.687Z,16.02
2022-11-01T17:14:38.690Z,16.00
2022-11-01T17:17:08.850Z,15.98
2022-11-01T17:19:38.376Z,15.96
2022-11-01T17:22:08.560Z,15.89
2022-11-01T17:24:35.469Z,15.85
2022-11-01T17:27:05.343Z,15.83
2022-11-01T17:29:32.762Z,15.81
2022-11-01T17:32:01.117Z,15.77
2022-11-01T17:34:29.074Z,15.73
2022-11-01T17:36:57.487Z,15.69
2022-11-01T17:39:26.604Z,15.62
2022-11-01T17:41:53.354Z,15.61
2022-11-01T17:44:20.051Z,15.58
2022-11-01T17:46:46.889Z,15.56
2022-11-01T17:49:15.765Z,15.55
2022-11-01T17:51:43.007Z,15.51
2022-11-01T17:54:10.135Z,15.46
2022-11-01T17:56:36.769Z,15.41
2022-11-01T17:59:03.511Z,15.37
2022-11-01T18:01:30.615Z,15.33
2022-11-01T18:03:57.437Z,15.28
2022-11-01T18:06:24.171Z,15.27
2022-11-01T18:08:51.879Z,15.24
2022-11-01T18:11:32.101Z,15.19
2022-11-01T18:14:15.399Z,15.15
2022-11-01T18:16:49.446Z,15.09
2022-11-01T18:19:51.804Z,15.06
2022-11-01T18:22:20.842Z,15.01
2022-11-01T18:24:53.288Z,14.99
2022-11-01T18:27:24.398Z,14.95
2022-11-01T18:29:52.487Z,14.92
2022-11-01T18:32:58.283Z,14.89
2022-11-01T18:35:49.643Z,14.84
2022-11-01T18:38:41.364Z,14.80
2022-11-01T18:41:13.228Z,14.76
2022-11-01T18:43:40.234Z,14.76
2022-11-01T18:46:26.726Z,14.71
2022-11-01T18:49:01.312Z,14.67
2022-11-01T18:51:33.213Z,14.62
2022-11-01T18:54:09.065Z,14.60
2022-11-01T18:56:38.390Z,14.57
2022-11-01T18:59:30.732Z,14.55
2022-11-01T19:02:00.944Z,14.49
2022-11-01T19:04:31.322Z,14.46
2022-11-01T19:07:09.784Z,14.43
2022-11-01T19:09:39.696Z,14.38
2022-11-01T19:12:13.862Z,14.34
2022-11-01T19:14:40.545Z,14.28
2022-11-01T19:17:20.044Z,14.26
2022-11-01T19:19:47.635Z,14.23
2022-11-01T19:22:36.895Z,14.17
2022-11-01T19:25:15.054Z,14.09
2022-11-01T19:27:41.805Z,14.09
2022-11-01T19:30:27.356Z,14.06
2022-11-01T19:32:55.614Z,13.99
2022-11-01T19:35:23.029Z,13.95
2022-11-01T19:37:51.991Z,13.95
2022-11-01T19:40:31.720Z,13.93
2022-11-01T19:43:06.299Z,13.89
2022-11-01T19:45:33.452Z,13.87
2022-11-01T19:48:02.248Z,13.83
2022-11-01T19:50:55.937Z,13.77
2022-11-01T19:53:26.903Z,13.72
2022-11-01T19:56:07.810Z,13.70
2022-11-01T19:58:46.486Z,13.66
2022-11-01T20:01:24.141Z,13.65
2022-11-01T20:03:55.530Z,13.61
2022-11-01T20:06:31.678Z,13.59
2022-11-01T20:09:20.177Z,13.56
2022-11-01T20:11:46.917Z,13.53
2022-11-01T20:14:13.622Z,13.46
2022-11-01T20:16:40.556Z,13.42
2022-11-01T20:19:07.272Z,13.42
2022-11-01T20:21:34.049Z,13.39
2022-11-01T20:24:00.804Z,13.37
2022-11-01T20:26:27.579Z,13.34
2022-11-01T20:28:54.254Z,13.31
2022-11-01T20:31:20.994Z,13.28
2022-11-01T20:33:47.743Z,13.25
2022-11-01T20:36:14.556Z,13.21
2022-11-01T20:38:41.323Z,13.18
2022-11-01T20:41:08.008Z,13.18
2022-11-01T20:43:34.912Z,13.14
2022-11-01T20:46:01.849Z,13.11
2022-11-01T20:48:28.548Z,13.09
2022-11-01T20:50:55.250Z,13.05
2022-11-01T20:53:25.950Z,13.03
2022-11-01T20:55:55.394Z,13.00
2022-11-01T20:58:22.469Z,12.95
2022-11-01T21:00:50.392Z,12.92
2022-11-01T21:03:19.590Z,12.84
2022-11-01T21:05:48.225Z,12.85
2022-11-01T21:08:24.958Z,12.82
2022-11-01T21:11:13.967Z,12.78
2022-11-01T21:13:45.771Z,12.76
2022-11-01T21:16:30.045Z,12.72
2022-11-01T21:19:03.467Z,12.69
2022-11-01T21:21:35.116Z,12.66
2022-11-01T21:24:19.901Z,12.61
2022-11-01T21:26:50.892Z,12.57
2022-11-01T21:29:25.896Z,12.54
2022-11-01T21:31:52.658Z,12.52
2022-11-01T21:34:27.252Z,12.53
2022-11-01T21:36:54.476Z,12.49
2022-11-01T21:39:29.083Z,12.46
2022-11-01T21:41:57.407Z,12.43
2022-11-01T21:44:25.174Z,12.41
2022-11-01T21:46:54.479Z,12.37
2022-11-01T21:49:29.613Z,12.37
2022-11-01T21:52:00.371Z,12.34
2022-11-01T21:54:29.075Z,12.34
2022-11-01T21:56:56.974Z,12.34
2022-11-01T21:59:24.703Z,12.30
2022-11-01T22:01:51.490Z,12.30
2022-11-01T22:04:18.459Z,12.27
2022-11-01T22:06:45.430Z,12.24
2022-11-01T22:09:12.311Z,12.22
2022-11-01T22:11:39.019Z,12.21
2022-11-01T22:14:06.564Z,12.19
2022-11-01T22:16:33.528Z,12.14
2022-11-01T22:19:00.508Z,12.12
2022-11-01T22:21:27.266Z,12.10
2022-11-01T22:23:53.999Z,12.08
2022-11-01T22:26:20.880Z,12.08
2022-11-01T22:28:47.658Z,12.08
2022-11-01T22:31:14.694Z,12.06
2022-11-01T22:33:41.631Z,12.03
2022-11-01T22:36:12.322Z,11.99
2022-11-01T22:38:41.603Z,11.98
2022-11-01T22:41:14.210Z,11.94
2022-11-01T22:43:44.912Z,11.94
2022-11-01T22:46:26.477Z,11.92
2022-11-01T22:49:00.232Z,11.89
2022-11-01T22:51:48.009Z,11.86
2022-11-01T22:54:34.557Z,11.83
2022-11-01T22:57:12.352Z,11.83
2022-11-01T22:59:51.696Z,11.84
2022-11-01T23:02:18.464Z,11.82
2022-11-01T23:04:45.219Z,11.80
2022-11-01T23:07:30.715Z,11.77
2022-11-01T23:10:05.396Z,11.73
2022-11-01T23:12:52.412Z,11.73
2022-11-01T23:15:37.481Z,11.71
2022-11-01T23:18:26.615Z,11.70
2022-11-01T23:20:55.574Z,11.69
2022-11-01T23:23:25.488Z,11.68
2022-11-01T23:25:53.588Z,11.66
2022-11-01T23:28:20.552Z,11.65
2022-11-01T23:30:48.182Z,11.60
2022-11-01T23:33:17.223Z,11.58
2022-11-01T23:35:57.773Z,11.56
2022-11-01T23:38:33.597Z,11.54
2022-11-01T23:41:00.336Z,11.52
2022-11-01T23:43:32.951Z,11.51
2022-11-01T23:45:59.916Z,11.47
2022-11-01T23:48:26.802Z,11.45
2022-11-01T23:50:53.943Z,11.43
2022-11-01T23:53:26.186Z,11.43
2022-11-01T23:55:53.806Z,11.40
2022-11-01T23:58:25.242Z,11.34
